Time,TemperatureF,DewpointF,PressureIn,WindDirection,WindDirectionDegrees,WindSpeedMPH,WindSpeedGustMPH,Humidity,HourlyPrecipIn,Conditions,Clouds,dailyrainin,SoftwareType,DateUTC
2013-02-12 00:01:00,60.0,57.0,30.05,East,97,0.0,3.0,90,0.00,,,1.04,,2013-02-12 06:01:00,
2013-02-12 00:12:00,59.0,56.0,30.05,ENE,57,0.0,3.0,90,0.00,,,1.04,,2013-02-12 06:12:00,
2013-02-12 00:21:00,59.0,56.0,30.05,ENE,57,0.0,3.0,90,0.00,,,1.04,,2013-02-12 06:21:00,
2013-02-12 00:32:00,59.0,56.0,30.04,NE,41,0.0,4.0,90,0.00,,,1.04,,2013-02-12 06:32:00,
2013-02-12 00:42:00,59.0,56.0,30.03,NE,46,0.0,4.0,91,0.00,,,1.04,,2013-02-12 06:42:00,
2013-02-12 00:51:00,59.0,56.0,30.03,NE,46,0.0,4.0,91,0.00,,,1.04,,2013-02-12 06:51:00,
2013-02-12 01:01:00,59.0,57.0,30.03,ENE,69,1.0,3.0,92,0.00,,,1.04,,2013-02-12 07:01:00,
2013-02-12 01:11:00,59.0,57.0,30.03,ENE,69,1.0,3.0,92,0.00,,,1.04,,2013-02-12 07:11:00,
2013-02-12 01:21:00,59.0,57.0,30.04,NW,314,0.0,3.0,92,0.00,,,1.04,,2013-02-12 07:21:00,
2013-02-12 01:31:00,59.0,57.0,30.04,NE,51,1.0,4.0,93,0.00,,,1.04,,2013-02-12 07:31:00,
2013-02-12 01:41:00,59.0,57.0,30.04,NE,51,1.0,4.0,93,0.00,,,1.04,,2013-02-12 07:41:00,
2013-02-12 01:51:00,58.0,56.0,30.04,NE,41,1.0,4.0,93,0.00,,,1.04,,2013-02-12 07:51:00,
2013-02-12 02:01:00,58.0,56.0,30.03,NE,39,0.0,3.0,94,0.00,,,1.04,,2013-02-12 08:01:00,
2013-02-12 02:11:00,58.0,56.0,30.03,NE,39,0.0,3.0,94,0.00,,,1.04,,2013-02-12 08:11:00,
2013-02-12 02:21:00,58.0,56.0,30.03,ENE,68,0.0,3.0,94,0.00,,,1.04,,2013-02-12 08:21:00,
2013-02-12 02:32:00,58.0,56.0,30.04,North,7,1.0,3.0,94,0.00,,,1.04,,2013-02-12 08:32:00,
2013-02-12 02:41:00,58.0,56.0,30.04,North,7,1.0,3.0,94,0.00,,,1.04,,2013-02-12 08:41:00,
2013-02-12 02:52:00,58.0,56.0,30.03,NE,46,1.0,4.0,94,0.00,,,1.04,,2013-02-12 08:52:00,
2013-02-12 03:01:00,58.0,57.0,30.03,NE,56,1.0,2.0,95,0.00,,,1.04,,2013-02-12 09:01:00,
2013-02-12 03:11:00,58.0,57.0,30.03,NE,56,1.0,2.0,95,0.00,,,1.04,,2013-02-12 09:11:00,
2013-02-12 03:21:00,58.0,57.0,30.02,NE,46,0.0,4.0,95,0.00,,,1.04,,2013-02-12 09:21:00,
2013-02-12 03:32:00,58.0,57.0,30.02,NNE,32,0.0,3.0,95,0.00,,,1.04,,2013-02-12 09:32:00,
2013-02-12 03:41:00,58.0,57.0,30.02,NNE,32,0.0,3.0,95,0.00,,,1.04,,2013-02-12 09:41:00,
2013-02-12 03:51:00,58.0,57.0,30.02,NE,34,0.0,2.0,95,0.00,,,1.04,,2013-02-12 09:51:00,
2013-02-12 04:01:00,57.0,56.0,30.02,NE,47,1.0,4.0,96,0.00,,,1.04,,2013-02-12 10:01:00,
2013-02-12 04:11:00,57.0,56.0,30.02,North,1,0.0,5.0,96,0.00,,,1.04,,2013-02-12 10:11:00,
2013-02-12 04:21:00,57.0,56.0,30.02,North,1,0.0,5.0,96,0.00,,,1.04,,2013-02-12 10:21:00,
2013-02-12 04:31:00,57.0,56.0,30.03,NNW,332,2.0,8.0,96,0.00,,,0.94,,2013-02-12 10:31:00,
2013-02-12 04:43:00,57.0,56.0,30.03,NNW,332,2.0,8.0,96,0.00,,,0.94,,2013-02-12 10:43:00,
2013-02-12 04:51:00,57.0,56.0,30.03,North,5,1.0,9.0,96,0.00,,,0.94,,2013-02-12 10:51:00,
2013-02-12 05:01:00,58.0,57.0,30.02,NNE,19,0.0,6.0,96,0.00,,,0.94,,2013-02-12 11:01:00,
2013-02-12 05:11:00,58.0,57.0,30.02,NNE,19,0.0,6.0,96,0.00,,,0.94,,2013-02-12 11:11:00,
2013-02-12 05:21:00,58.0,57.0,30.03,NE,44,3.0,8.0,96,0.00,,,0.94,,2013-02-12 11:21:00,
2013-02-12 05:32:00,58.0,57.0,30.03,NE,44,3.0,8.0,96,0.00,,,0.94,,2013-02-12 11:32:00,
2013-02-12 05:41:00,58.0,57.0,30.03,NE,44,3.0,8.0,96,0.00,,,0.94,,2013-02-12 11:41:00,
2013-02-12 05:52:00,57.0,56.0,30.01,NNE,25,2.0,7.0,96,0.00,,,0.62,,2013-02-12 11:52:00,
2013-02-12 06:01:00,57.0,56.0,30.01,NNE,30,1.0,9.0,96,0.00,,,0.62,,2013-02-12 12:01:00,
2013-02-12 06:11:00,57.0,56.0,30.01,NNE,30,1.0,9.0,96,0.00,,,0.62,,2013-02-12 12:11:00,
2013-02-12 06:21:00,57.0,56.0,30.00,East,92,2.0,7.0,96,0.00,,,0.62,,2013-02-12 12:21:00,
2013-02-12 06:32:00,58.0,57.0,30.00,ENE,70,2.0,4.0,96,0.00,,,0.62,,2013-02-12 12:32:00,
2013-02-12 06:42:00,58.0,57.0,30.00,ENE,70,2.0,4.0,96,0.00,,,0.62,,2013-02-12 12:42:00,
2013-02-12 06:52:00,58.0,57.0,30.01,NE,47,1.0,6.0,95,0.00,,,0.62,,2013-02-12 12:52:00,
2013-02-12 07:01:00,58.0,57.0,30.01,NE,47,1.0,6.0,95,0.00,,,0.62,,2013-02-12 13:01:00,
2013-02-12 07:11:00,58.0,57.0,30.01,East,81,1.0,3.0,95,0.00,,,0.62,,2013-02-12 13:11:00,
2013-02-12 07:22:00,58.0,57.0,30.01,East,81,1.0,3.0,95,0.00,,,0.62,,2013-02-12 13:22:00,
2013-02-12 07:32:00,58.0,57.0,30.01,NE,44,1.0,4.0,95,0.00,,,0.62,,2013-02-12 13:32:00,
2013-02-12 07:42:00,58.0,57.0,30.01,NE,44,1.0,4.0,95,0.00,,,0.62,,2013-02-12 13:42:00,
2013-02-12 07:51:00,58.0,57.0,30.02,ESE,108,0.0,6.0,95,0.00,,,0.62,,2013-02-12 13:51:00,
2013-02-12 08:01:00,57.0,56.0,30.01,ENE,58,5.0,9.0,96,0.00,,,0.62,,2013-02-12 14:01:00,
2013-02-12 08:11:00,57.0,56.0,30.01,ENE,58,5.0,9.0,96,0.00,,,0.62,,2013-02-12 14:11:00,
2013-02-12 08:21:00,57.0,56.0,30.01,East,82,1.0,4.0,97,0.00,,,0.62,,2013-02-12 14:21:00,
2013-02-12 08:32:00,57.0,56.0,30.00,East,83,3.0,8.0,97,0.00,,,0.62,,2013-02-12 14:32:00,
2013-02-12 08:42:00,57.0,56.0,30.00,East,83,3.0,8.0,97,0.00,,,0.62,,2013-02-12 14:42:00,
2013-02-12 08:52:00,57.0,56.0,30.01,NE,56,3.0,8.0,97,0.00,,,0.62,,2013-02-12 14:52:00,
2013-02-12 09:02:00,58.0,57.0,30.01,East,91,5.0,10.0,97,0.00,,,0.62,,2013-02-12 15:02:00,
2013-02-12 09:11:00,58.0,57.0,30.00,NE,52,5.0,9.0,97,0.00,,,0.62,,2013-02-12 15:11:00,
2013-02-12 09:21:00,58.0,57.0,30.00,NE,52,5.0,9.0,97,0.00,,,0.62,,2013-02-12 15:21:00,
2013-02-12 09:32:00,58.0,57.0,29.99,East,91,4.0,8.0,96,0.00,,,0.62,,2013-02-12 15:32:00,
2013-02-12 09:42:00,58.0,57.0,29.99,East,91,4.0,8.0,96,0.00,,,0.62,,2013-02-12 15:42:00,
2013-02-12 09:52:00,59.0,58.0,29.99,East,91,0.0,7.0,96,0.00,,,0.62,,2013-02-12 15:52:00,
2013-02-12 10:01:00,60.0,59.0,30.00,ENE,63,3.0,8.0,95,0.00,,,0.62,,2013-02-12 16:01:00,
2013-02-12 10:11:00,60.0,59.0,30.00,ENE,63,3.0,8.0,95,0.00,,,0.62,,2013-02-12 16:11:00,
2013-02-12 10:22:00,60.0,59.0,30.00,ENE,63,3.0,6.0,95,0.00,,,0.62,,2013-02-12 16:22:00,
2013-02-12 10:32:00,60.0,58.0,30.00,ENE,71,3.0,8.0,94,0.00,,,0.48,,2013-02-12 16:32:00,
2013-02-12 10:41:00,60.0,58.0,30.00,ENE,71,3.0,8.0,94,0.00,,,0.48,,2013-02-12 16:41:00,
2013-02-12 10:51:00,61.0,59.0,29.99,East,81,1.0,7.0,94,0.00,,,0.48,,2013-02-12 16:51:00,
2013-02-12 11:01:00,61.0,59.0,29.98,ENE,72,2.0,6.0,93,0.00,,,0.48,,2013-02-12 17:01:00,
2013-02-12 11:12:00,61.0,59.0,29.98,ENE,72,2.0,6.0,93,0.00,,,0.48,,2013-02-12 17:12:00,
2013-02-12 11:21:00,61.0,59.0,29.97,East,79,1.0,5.0,94,0.00,,,0.48,,2013-02-12 17:21:00,
2013-02-12 11:32:00,61.0,59.0,29.95,ESE,113,2.0,5.0,94,0.00,,,0.45,,2013-02-12 17:32:00,
2013-02-12 11:42:00,61.0,59.0,29.95,ESE,113,2.0,5.0,94,0.00,,,0.45,,2013-02-12 17:42:00,
2013-02-12 11:52:00,62.0,60.0,29.94,SE,135,3.0,8.0,93,0.00,,,0.45,,2013-02-12 17:52:00,
2013-02-12 12:01:00,64.0,62.0,29.93,North,354,1.0,6.0,92,0.00,,,0.45,,2013-02-12 18:01:00,
2013-02-12 12:11:00,64.0,62.0,29.93,North,354,1.0,6.0,92,0.00,,,0.45,,2013-02-12 18:11:00,
2013-02-12 12:23:00,64.0,62.0,29.93,North,354,1.0,6.0,92,0.00,,,0.45,,2013-02-12 18:23:00,
2013-02-12 12:31:00,64.0,62.0,29.92,SSE,159,1.0,5.0,93,0.00,,,0.39,,2013-02-12 18:31:00,
2013-02-12 12:41:00,64.0,62.0,29.92,SSE,159,1.0,5.0,93,0.00,,,0.39,,2013-02-12 18:41:00,
2013-02-12 12:52:00,64.0,62.0,29.90,East,91,2.0,8.0,93,0.01,,,0.40,,2013-02-12 18:52:00,
2013-02-12 13:02:00,64.0,63.0,29.90,East,87,0.0,3.0,95,0.02,,,0.41,,2013-02-12 19:02:00,
2013-02-12 13:11:00,64.0,63.0,29.90,East,87,0.0,3.0,95,0.02,,,0.41,,2013-02-12 19:11:00,
2013-02-12 13:21:00,64.0,63.0,29.88,South,173,1.0,5.0,96,0.02,,,0.41,,2013-02-12 19:21:00,
2013-02-12 13:31:00,65.0,64.0,29.85,ESE,109,3.0,10.0,95,0.02,,,0.08,,2013-02-12 19:31:00,
2013-02-12 13:41:00,65.0,64.0,29.85,ESE,109,3.0,10.0,95,0.02,,,0.08,,2013-02-12 19:41:00,
2013-02-12 13:51:00,65.0,64.0,29.84,ESE,116,2.0,8.0,95,0.01,,,0.08,,2013-02-12 19:51:00,
2013-02-12 14:01:00,65.0,63.0,29.83,SE,136,3.0,8.0,94,0.00,,,0.08,,2013-02-12 20:01:00,
2013-02-12 14:11:00,65.0,63.0,29.83,SE,136,3.0,8.0,94,0.00,,,0.08,,2013-02-12 20:11:00,
2013-02-12 14:21:00,65.0,64.0,29.81,East,98,3.0,8.0,95,0.00,,,0.08,,2013-02-12 20:21:00,
2013-02-12 14:31:00,65.0,64.0,29.79,East,96,3.0,9.0,95,0.00,,,0.05,,2013-02-12 20:31:00,
2013-02-12 14:41:00,65.0,64.0,29.79,East,96,3.0,9.0,95,0.00,,,0.05,,2013-02-12 20:41:00,
2013-02-12 14:52:00,65.0,64.0,29.79,East,96,3.0,9.0,95,0.00,,,0.05,,2013-02-12 20:52:00,
2013-02-12 15:01:00,65.0,64.0,29.78,SSW,207,3.0,15.0,96,0.04,,,0.09,,2013-02-12 21:01:00,
2013-02-12 15:11:00,65.0,64.0,29.78,SSW,207,3.0,15.0,96,0.04,,,0.09,,2013-02-12 21:11:00,
2013-02-12 15:21:00,65.0,64.0,29.78,WSW,249,2.0,13.0,97,0.04,,,0.09,,2013-02-12 21:21:00,
2013-02-12 15:31:00,67.0,67.0,29.77,SSE,147,3.0,13.0,99,0.05,,,0.10,,2013-02-12 21:31:00,
2013-02-12 15:42:00,67.0,66.0,29.78,West,263,2.0,10.0,98,0.11,,,0.16,,2013-02-12 21:42:00,
2013-02-12 15:51:00,67.0,66.0,29.78,West,263,2.0,10.0,98,0.11,,,0.16,,2013-02-12 21:51:00,
2013-02-12 16:01:00,68.0,68.0,29.78,SW,225,3.0,9.0,99,0.09,,,0.18,,2013-02-12 22:01:00,
2013-02-12 16:12:00,68.0,68.0,29.78,SW,225,3.0,9.0,99,0.09,,,0.18,,2013-02-12 22:12:00,
2013-02-12 16:21:00,69.0,68.0,29.78,SSW,205,5.0,20.0,98,0.10,,,0.19,,2013-02-12 22:21:00,
2013-02-12 16:32:00,70.0,69.0,29.79,WSW,237,2.0,9.0,98,0.08,,,0.17,,2013-02-12 22:32:00,
2013-02-12 16:41:00,70.0,69.0,29.79,WSW,237,2.0,9.0,98,0.08,,,0.17,,2013-02-12 22:41:00,
2013-02-12 16:51:00,70.0,69.0,29.79,South,174,1.0,14.0,98,0.02,,,0.17,,2013-02-12 22:51:00,
2013-02-12 17:01:00,70.0,69.0,29.79,South,174,2.0,9.0,97,0.01,,,0.17,,2013-02-12 23:01:00,
2013-02-12 17:11:00,70.0,69.0,29.79,West,278,2.0,10.0,98,0.00,,,0.17,,2013-02-12 23:11:00,
2013-02-12 17:21:00,70.0,69.0,29.79,West,278,2.0,10.0,98,0.00,,,0.17,,2013-02-12 23:21:00,
2013-02-12 17:32:00,69.0,68.0,29.78,SSW,208,2.0,9.0,98,0.01,,,0.17,,2013-02-12 23:32:00,
2013-02-12 17:42:00,69.0,68.0,29.78,SSW,208,2.0,9.0,98,0.01,,,0.17,,2013-02-12 23:42:00,
2013-02-12 17:52:00,69.0,68.0,29.78,South,175,2.0,10.0,98,0.04,,,0.20,,2013-02-12 23:52:00,
2013-02-12 18:02:00,69.0,68.0,29.78,SSW,208,0.0,8.0,98,0.04,,,0.20,,2013-02-13 00:02:00,
2013-02-12 18:11:00,69.0,68.0,29.78,SSW,208,0.0,8.0,98,0.04,,,0.20,,2013-02-13 00:11:00,
2013-02-12 18:21:00,69.0,68.0,29.78,SSW,208,0.0,8.0,98,0.04,,,0.20,,2013-02-13 00:21:00,
2013-02-12 18:32:00,69.0,68.0,29.79,SSW,211,2.0,9.0,98,0.03,,,0.20,,2013-02-13 00:32:00,
2013-02-12 18:42:00,69.0,68.0,29.79,SSW,211,2.0,9.0,98,0.03,,,0.20,,2013-02-13 00:42:00,
2013-02-12 18:52:00,69.0,68.0,29.79,SSW,208,2.0,9.0,98,0.00,,,0.20,,2013-02-13 00:52:00,
2013-02-12 19:01:00,70.0,69.0,29.79,SSW,208,1.0,8.0,98,0.00,,,0.20,,2013-02-13 01:01:00,
2013-02-12 19:11:00,70.0,69.0,29.79,SSW,208,1.0,8.0,98,0.00,,,0.20,,2013-02-13 01:11:00,
2013-02-12 19:21:00,70.0,69.0,29.79,West,263,1.0,7.0,98,0.00,,,0.20,,2013-02-13 01:21:00,
2013-02-12 19:31:00,70.0,69.0,29.80,SSW,208,1.0,8.0,98,0.00,,,0.20,,2013-02-13 01:31:00,
2013-02-12 19:42:00,70.0,69.0,29.80,SSW,208,1.0,8.0,98,0.00,,,0.20,,2013-02-13 01:42:00,
2013-02-12 19:51:00,70.0,69.0,29.79,South,172,0.0,10.0,98,0.00,,,0.20,,2013-02-13 01:51:00,
2013-02-12 20:01:00,70.0,69.0,29.79,South,176,2.0,7.0,97,0.00,,,0.20,,2013-02-13 02:01:00,
2013-02-12 20:11:00,70.0,69.0,29.79,South,176,2.0,7.0,97,0.00,,,0.20,,2013-02-13 02:11:00,
2013-02-12 20:21:00,70.0,69.0,29.79,WSW,239,2.0,13.0,98,0.00,,,0.20,,2013-02-13 02:21:00,
2013-02-12 20:31:00,71.0,70.0,29.79,West,263,2.0,16.0,96,0.00,,,0.20,,2013-02-13 02:31:00,
2013-02-12 20:41:00,71.0,70.0,29.79,West,263,2.0,16.0,96,0.00,,,0.20,,2013-02-13 02:41:00,
2013-02-12 20:52:00,71.0,69.0,29.79,ESE,106,3.0,12.0,95,0.00,,,0.20,,2013-02-13 02:52:00,
2013-02-12 21:01:00,71.0,69.0,29.79,South,176,2.0,11.0,95,0.00,,,0.20,,2013-02-13 03:01:00,
2013-02-12 21:11:00,71.0,69.0,29.80,South,176,2.0,12.0,95,0.00,,,0.20,,2013-02-13 03:11:00,
2013-02-12 21:21:00,71.0,69.0,29.80,South,176,2.0,12.0,95,0.00,,,0.20,,2013-02-13 03:21:00,
2013-02-12 21:32:00,71.0,69.0,29.80,South,176,5.0,11.0,95,0.00,,,0.20,,2013-02-13 03:32:00,
2013-02-12 21:41:00,71.0,69.0,29.80,South,176,5.0,11.0,95,0.00,,,0.20,,2013-02-13 03:41:00,
2013-02-12 21:51:00,71.0,69.0,29.79,WNW,284,3.0,10.0,95,0.00,,,0.20,,2013-02-13 03:51:00,
2013-02-12 22:01:00,71.0,69.0,29.79,West,271,4.0,10.0,94,0.00,,,0.20,,2013-02-13 04:01:00,
2013-02-12 22:11:00,71.0,69.0,29.79,West,271,4.0,10.0,94,0.00,,,0.20,,2013-02-13 04:11:00,
2013-02-12 22:21:00,71.0,69.0,29.79,West,280,4.0,13.0,94,0.00,,,0.20,,2013-02-13 04:21:00,
2013-02-12 22:32:00,71.0,69.0,29.79,WNW,285,4.0,13.0,94,0.00,,,0.20,,2013-02-13 04:32:00,
2013-02-12 22:41:00,71.0,69.0,29.79,WNW,285,4.0,13.0,94,0.00,,,0.20,,2013-02-13 04:41:00,
2013-02-12 22:51:00,71.0,69.0,29.78,South,173,2.0,13.0,94,0.00,,,0.20,,2013-02-13 04:51:00,
2013-02-12 23:01:00,71.0,69.0,29.78,South,173,3.0,9.0,94,0.00,,,0.20,,2013-02-13 05:01:00,
2013-02-12 23:11:00,71.0,69.0,29.78,WNW,293,2.0,9.0,94,0.00,,,0.20,,2013-02-13 05:11:00,
2013-02-12 23:22:00,71.0,69.0,29.78,WNW,293,2.0,9.0,94,0.00,,,0.20,,2013-02-13 05:22:00,
2013-02-12 23:31:00,70.0,68.0,29.79,WNW,290,5.0,12.0,94,0.00,,,0.20,,2013-02-13 05:31:00,
2013-02-12 23:42:00,70.0,68.0,29.79,WNW,290,5.0,12.0,94,0.00,,,0.20,,2013-02-13 05:42:00,
2013-02-12 23:52:00,70.0,68.0,29.79,SW,218,2.0,10.0,94,0.00,,,0.20,,2013-02-13 05:52:00,